Time;durP1;ratioP1;P1;durP2;ratioP2;P2;SDS_P1;SDS_P2;PMS_P1;PMS_P2;Temp;Humidity;BMP_temperature;BMP_pressure;BME280_temperature;BME280_humidity;BME280_pressure;Samples;Min_cycle;Max_cycle;Signal;HPM_P1;HPM_P2
2023/05/02 00:01:44;;;;;;;25.50;12.57;;;9.70;99.90;;;;;;4981354;28;20105;-65
2023/05/02 00:04:10;;;;;;;26.65;12.57;;;9.70;99.90;;;;;;4983783;28;20053;-66
2023/05/02 00:06:36;;;;;;;22.08;12.52;;;9.70;99.90;;;;;;4979293;28;20466;-69
2023/05/02 00:09:02;;;;;;;24.08;12.23;;;9.70;99.90;;;;;;4986324;28;20129;-66
2023/05/02 00:11:28;;;;;;;23.85;12.82;;;9.80;99.90;;;;;;4985410;28;20033;-65
2023/05/02 00:13:53;;;;;;;26.42;12.90;;;9.80;99.90;;;;;;4987937;28;20027;-65
2023/05/02 00:16:19;;;;;;;26.60;13.50;;;9.70;99.90;;;;;;4987199;28;20467;-66
2023/05/02 00:18:45;;;;;;;22.38;12.07;;;9.70;99.90;;;;;;4970699;28;20049;-65
2023/05/02 00:21:11;;;;;;;23.67;11.63;;;9.70;99.90;;;;;;4979658;28;20130;-66
2023/05/02 00:23:37;;;;;;;24.42;12.40;;;9.60;99.90;;;;;;4986146;28;21907;-66
2023/05/02 00:26:07;;;;;;;26.90;13.10;;;9.70;99.90;;;;;;4986765;28;20117;-66
2023/05/02 00:28:32;;;;;;;26.58;13.20;;;9.60;99.90;;;;;;4980411;28;20113;-66
2023/05/02 00:30:58;;;;;;;23.40;12.20;;;9.50;99.90;;;;;;4985985;28;20118;-66
2023/05/02 00:33:24;;;;;;;25.63;12.55;;;9.60;99.90;;;;;;4988198;28;20030;-65
2023/05/02 00:35:50;;;;;;;24.83;12.85;;;9.50;99.90;;;;;;4985651;28;20084;-70
2023/05/02 00:38:15;;;;;;;27.27;13.63;;;9.50;99.90;;;;;;4979216;28;20061;-67
2023/05/02 00:40:43;;;;;;;22.02;11.63;;;9.60;99.90;;;;;;4983259;28;20557;-66
2023/05/02 00:43:09;;;;;;;24.70;11.95;;;9.50;99.90;;;;;;4984689;28;20070;-65
2023/05/02 00:45:35;;;;;;;21.33;12.00;;;9.50;99.90;;;;;;4960368;28;20053;-65
2023/05/02 00:48:01;;;;;;;20.38;11.70;;;9.50;99.90;;;;;;4981379;28;20034;-65
2023/05/02 00:50:29;;;;;;;25.80;12.18;;;9.50;99.90;;;;;;4987281;28;20039;-66
2023/05/02 00:52:55;;;;;;;25.70;13.38;;;9.40;99.90;;;;;;4987076;28;20057;-66
2023/05/02 00:55:22;;;;;;;24.35;12.35;;;9.50;99.90;;;;;;4986155;28;20434;-66
2023/05/02 00:57:48;;;;;;;23.70;12.25;;;9.50;99.90;;;;;;4987915;28;20030;-66
2023/05/02 01:00:14;;;;;;;22.10;12.07;;;9.50;99.90;;;;;;4985432;28;20109;-67
2023/05/02 01:02:52;;;;;;;23.10;11.73;;;9.40;99.90;;;;;;4987962;28;20129;-65
2023/05/02 01:05:32;;;;;;;21.92;11.10;;;9.50;99.90;;;;;;4986964;28;20035;-65
2023/05/02 01:08:34;;;;;;;19.48;10.10;;;9.50;99.90;;;;;;4985854;28;20030;-66
2023/05/02 01:11:13;;;;;;;20.75;10.98;;;9.40;99.90;;;;;;4978911;28;20095;-66
2023/05/02 01:13:42;;;;;;;21.40;11.82;;;9.50;99.90;;;;;;4990770;28;20124;-64
2023/05/02 01:16:12;;;;;;;20.27;11.38;;;9.50;99.90;;;;;;4983193;28;20038;-65
2023/05/02 01:18:41;;;;;;;20.35;11.48;;;9.50;99.90;;;;;;4986684;28;20113;-66
2023/05/02 01:21:09;;;;;;;23.73;10.90;;;9.40;99.90;;;;;;4989239;28;20554;-66
2023/05/02 01:23:45;;;;;;;21.70;11.32;;;9.40;99.90;;;;;;4986440;28;20026;-65
2023/05/02 01:26:31;;;;;;;22.50;11.90;;;9.40;99.90;;;;;;4990076;28;20026;-65
2023/05/02 01:29:01;;;;;;;22.27;11.77;;;9.30;99.90;;;;;;4985453;28;20035;-66
2023/05/02 01:31:39;;;;;;;22.70;11.43;;;9.30;99.90;;;;;;4990944;28;20030;-66
2023/05/02 01:34:11;;;;;;;24.25;12.75;;;9.30;99.90;;;;;;4986817;28;20442;-64
2023/05/02 01:36:45;;;;;;;23.45;12.82;;;9.20;99.90;;;;;;4982685;28;20042;-65
2023/05/02 01:39:20;;;;;;;25.70;12.90;;;9.20;99.90;;;;;;4988814;28;20735;-65
2023/05/02 01:41:50;;;;;;;23.77;12.98;;;9.10;99.90;;;;;;4986874;28;20100;-65
2023/05/02 01:44:17;;;;;;;23.13;11.80;;;9.20;99.90;;;;;;4979688;28;20058;-65
2023/05/02 01:46:43;;;;;;;26.80;13.20;;;9.10;99.90;;;;;;4990217;28;20030;-65
2023/05/02 01:49:10;;;;;;;26.38;12.70;;;9.00;99.90;;;;;;4987390;28;20041;-66
2023/05/02 01:51:43;;;;;;;22.83;12.82;;;9.00;99.90;;;;;;4991012;28;20072;-65
2023/05/02 01:54:11;;;;;;;27.35;13.30;;;9.00;99.90;;;;;;4981182;28;20023;-67
2023/05/02 01:56:38;;;;;;;28.08;13.10;;;8.90;99.90;;;;;;4988868;28;20030;-66
2023/05/02 01:59:12;;;;;;;27.10;13.20;;;8.90;99.90;;;;;;4983241;28;20053;-66
2023/05/02 02:01:39;;;;;;;25.30;13.60;;;9.00;99.90;;;;;;4983116;28;20034;-66
2023/05/02 02:04:07;;;;;;;24.63;13.23;;;8.90;99.90;;;;;;4989329;28;20074;-65
2023/05/02 02:06:33;;;;;;;25.80;12.60;;;8.90;99.90;;;;;;4980816;28;20022;-65
2023/05/02 02:09:00;;;;;;;25.23;13.25;;;8.80;99.90;;;;;;4985451;28;20149;-65
2023/05/02 02:11:31;;;;;;;24.50;12.93;;;8.80;99.90;;;;;;4982715;28;20114;-66
2023/05/02 02:14:05;;;;;;;26.08;13.68;;;8.80;99.90;;;;;;4964395;28;20085;-68
2023/05/02 02:16:36;;;;;;;27.80;13.70;;;8.90;99.90;;;;;;4987422;28;20041;-65
2023/05/02 02:19:07;;;;;;;33.17;14.48;;;8.80;99.90;;;;;;4987437;28;20029;-65
2023/05/02 02:21:35;;;;;;;27.98;13.55;;;8.90;99.90;;;;;;4987342;28;20471;-65
2023/05/02 02:24:03;;;;;;;29.55;13.52;;;8.90;99.90;;;;;;4988870;28;20636;-66
2023/05/02 02:26:28;;;;;;;24.58;13.07;;;8.90;99.90;;;;;;4984804;28;20053;-66
2023/05/02 02:28:55;;;;;;;23.35;11.95;;;8.90;99.90;;;;;;4986038;28;20046;-68
2023/05/02 02:31:21;;;;;;;23.50;11.10;;;8.90;99.90;;;;;;4984288;28;20110;-65
2023/05/02 02:33:47;;;;;;;24.95;12.05;;;8.70;99.90;;;;;;4988126;28;20805;-66
2023/05/02 02:36:32;;;;;;;23.58;13.32;;;8.60;99.90;;;;;;4988819;28;20529;-66
2023/05/02 02:39:18;;;;;;;27.45;14.27;;;8.60;99.90;;;;;;4986144;28;20046;-69
2023/05/02 02:42:02;;;;;;;28.98;15.15;;;8.70;99.90;;;;;;4985282;28;20383;-66
2023/05/02 02:44:34;;;;;;;30.98;14.95;;;8.70;99.90;;;;;;4984818;28;20437;-66
2023/05/02 02:47:08;;;;;;;32.17;14.88;;;8.80;99.90;;;;;;4988831;28;20038;-70
2023/05/02 02:50:01;;;;;;;28.80;14.63;;;8.80;99.90;;;;;;4990269;28;20112;-64
2023/05/02 02:52:39;;;;;;;27.95;13.63;;;8.80;99.90;;;;;;4981454;28;20022;-66
2023/05/02 02:55:41;;;;;;;27.20;14.85;;;8.80;99.90;;;;;;4980513;28;20364;-64
2023/05/02 02:58:25;;;;;;;28.27;14.07;;;8.80;99.90;;;;;;4986126;28;20042;-66
2023/05/02 03:00:52;;;;;;;28.48;14.30;;;8.70;99.90;;;;;;4982899;28;20034;-66
2023/05/02 03:03:21;;;;;;;31.23;15.40;;;8.70;99.90;;;;;;4986980;28;20138;-65
2023/05/02 03:05:47;;;;;;;27.98;15.18;;;8.70;99.90;;;;;;4981002;28;20121;-67
2023/05/02 03:08:13;;;;;;;29.25;14.10;;;8.70;99.90;;;;;;4986450;28;20063;-66
2023/05/02 03:10:39;;;;;;;28.90;14.23;;;8.70;99.90;;;;;;4994218;28;20035;-66
2023/05/02 03:13:05;;;;;;;26.80;14.07;;;8.70;99.90;;;;;;4987143;28;20669;-66
2023/05/02 03:15:52;;;;;;;28.40;14.95;;;8.70;99.90;;;;;;4988080;28;20035;-69
2023/05/02 03:18:18;;;;;;;29.65;14.57;;;8.70;99.90;;;;;;4981307;28;20037;-67
2023/05/02 03:20:44;;;;;;;31.48;14.82;;;8.60;99.90;;;;;;4984524;28;20030;-65
2023/05/02 03:23:10;;;;;;;28.48;14.60;;;8.60;99.90;;;;;;4968943;28;20386;-66
2023/05/02 03:25:35;;;;;;;28.23;13.85;;;8.50;99.90;;;;;;4984945;28;20038;-65
2023/05/02 03:28:01;;;;;;;26.52;12.93;;;8.50;99.90;;;;;;4990383;28;20042;-70
2023/05/02 03:30:27;;;;;;;27.35;14.52;;;8.30;99.90;;;;;;4980551;28;20038;-66
2023/05/02 03:32:53;;;;;;;30.08;15.05;;;8.10;99.90;;;;;;4988166;28;20030;-66
2023/05/02 03:35:18;;;;;;;32.47;15.73;;;8.10;99.90;;;;;;4986329;28;20084;-66
2023/05/02 03:37:44;;;;;;;43.72;17.13;;;8.10;99.90;;;;;;4987559;28;20393;-64
2023/05/02 03:40:10;;;;;;;51.92;16.52;;;8.20;99.90;;;;;;4985838;28;20049;-65
2023/05/02 03:42:38;;;;;;;46.25;15.98;;;8.20;99.90;;;;;;4988645;28;20026;-64
2023/05/02 03:45:06;;;;;;;69.63;16.38;;;8.20;99.90;;;;;;4991206;28;20050;-65
2023/05/02 03:47:32;;;;;;;99.00;16.85;;;8.20;99.90;;;;;;4986268;28;20718;-64
2023/05/02 03:49:58;;;;;;;65.97;16.73;;;8.20;99.90;;;;;;4987609;28;20042;-67
2023/05/02 03:52:24;;;;;;;47.00;16.67;;;8.20;99.90;;;;;;4986105;28;20026;-66
2023/05/02 03:54:50;;;;;;;72.00;16.60;;;8.20;99.90;;;;;;4985876;28;20042;-67
2023/05/02 03:57:16;;;;;;;60.78;18.15;;;8.20;99.90;;;;;;4984589;28;20057;-69
2023/05/02 03:59:44;;;;;;;42.58;16.48;;;8.30;99.90;;;;;;4973523;28;20113;-69
2023/05/02 04:02:10;;;;;;;81.88;17.42;;;8.20;99.90;;;;;;4980280;28;20470;-67
2023/05/02 04:04:37;;;;;;;52.85;15.63;;;8.20;99.90;;;;;;4987530;28;20038;-68
2023/05/02 04:07:03;;;;;;;67.63;16.70;;;8.20;99.90;;;;;;4984332;28;20062;-69
2023/05/02 04:09:28;;;;;;;124.75;17.35;;;8.10;99.90;;;;;;4986942;28;20120;-69
2023/05/02 04:11:54;;;;;;;62.90;15.90;;;8.10;99.90;;;;;;4983009;28;20471;-67
2023/05/02 04:14:20;;;;;;;59.90;15.93;;;8.10;99.90;;;;;;4969450;28;20118;-69
2023/05/02 04:16:49;;;;;;;60.53;17.85;;;8.20;99.90;;;;;;4987276;28;20035;-66
2023/05/02 04:19:17;;;;;;;44.58;17.20;;;8.20;99.90;;;;;;4986615;28;20037;-66
2023/05/02 04:21:43;;;;;;;57.53;17.88;;;8.10;99.90;;;;;;4980480;28;20034;-69
2023/05/02 04:24:08;;;;;;;42.75;16.40;;;8.20;99.90;;;;;;4977736;28;20463;-69
2023/05/02 04:26:34;;;;;;;52.80;15.75;;;8.20;99.90;;;;;;4985385;28;20034;-68
2023/05/02 04:29:00;;;;;;;57.88;16.52;;;8.20;99.90;;;;;;4986357;28;20031;-65
2023/05/02 04:31:26;;;;;;;33.08;15.85;;;8.10;99.90;;;;;;4977600;28;20045;-68
2023/05/02 04:33:52;;;;;;;33.60;14.90;;;8.10;99.90;;;;;;4977796;28;20482;-68
2023/05/02 04:36:18;;;;;;;35.25;17.13;;;8.10;99.90;;;;;;4983062;28;20058;-67
2023/05/02 04:38:44;;;;;;;36.67;16.67;;;8.10;99.90;;;;;;4976872;28;20371;-68
2023/05/02 04:41:10;;;;;;;37.30;17.88;;;8.20;99.90;;;;;;4982322;28;20022;-68
2023/05/02 04:43:35;;;;;;;39.00;18.00;;;8.20;99.90;;;;;;4979718;28;20029;-69
2023/05/02 04:46:01;;;;;;;40.42;18.90;;;8.20;99.90;;;;;;4979358;28;20030;-68
2023/05/02 04:48:27;;;;;;;41.03;18.05;;;8.30;99.90;;;;;;5003850;28;20101;-67
2023/05/02 04:50:53;;;;;;;38.08;17.95;;;8.30;99.90;;;;;;4975748;28;20035;-66
2023/05/02 04:53:20;;;;;;;38.25;17.83;;;8.30;99.90;;;;;;4978961;28;20085;-67
2023/05/02 04:55:46;;;;;;;34.58;16.60;;;8.30;99.90;;;;;;4989790;28;20046;-68
2023/05/02 04:58:12;;;;;;;35.63;17.42;;;8.30;99.90;;;;;;4990674;28;20438;-67
2023/05/02 05:00:38;;;;;;;33.28;16.08;;;8.40;99.90;;;;;;4984407;28;20015;-67
2023/05/02 05:03:05;;;;;;;31.17;15.63;;;8.40;99.90;;;;;;4982709;28;20431;-69
2023/05/02 05:05:31;;;;;;;33.85;16.00;;;8.40;99.90;;;;;;4987793;28;20069;-67
2023/05/02 05:07:56;;;;;;;32.00;16.15;;;8.40;99.90;;;;;;4981623;28;20101;-70
2023/05/02 05:10:22;;;;;;;34.45;16.75;;;8.50;99.90;;;;;;4983772;28;20038;-70
2023/05/02 05:12:48;;;;;;;33.78;16.40;;;8.50;99.90;;;;;;4986713;28;20030;-71
2023/05/02 05:15:14;;;;;;;31.38;15.88;;;8.50;99.90;;;;;;4982898;28;20305;-71
2023/05/02 05:17:40;;;;;;;34.30;16.52;;;8.70;99.90;;;;;;4989392;28;20042;-72
2023/05/02 05:20:09;;;;;;;34.80;16.77;;;8.70;99.90;;;;;;4978801;28;20082;-72
2023/05/02 05:22:41;;;;;;;30.63;15.60;;;8.70;99.90;;;;;;4984685;28;20026;-72
2023/05/02 05:25:08;;;;;;;31.55;15.82;;;8.60;99.90;;;;;;4985465;28;20530;-71
2023/05/02 05:27:34;;;;;;;31.13;15.57;;;8.60;99.90;;;;;;4989028;28;20112;-69
2023/05/02 05:30:00;;;;;;;34.20;16.48;;;8.60;99.90;;;;;;4984206;28;20043;-70
2023/05/02 05:32:25;;;;;;;32.35;15.70;;;8.60;99.90;;;;;;4978834;28;20034;-70
2023/05/02 05:34:52;;;;;;;32.13;15.82;;;8.60;99.90;;;;;;4981448;28;20038;-68
2023/05/02 05:37:18;;;;;;;30.90;15.20;;;8.60;99.90;;;;;;4976839;28;20120;-71
2023/05/02 05:39:44;;;;;;;29.15;15.10;;;8.60;99.90;;;;;;4979765;28;20065;-71
2023/05/02 05:42:09;;;;;;;31.92;16.35;;;8.70;99.90;;;;;;4984202;28;20109;-72
2023/05/02 05:44:35;;;;;;;31.73;16.27;;;8.70;99.90;;;;;;4982641;28;20041;-71
2023/05/02 05:47:01;;;;;;;35.25;16.85;;;8.70;99.90;;;;;;4971375;28;20438;-71
2023/05/02 05:49:27;;;;;;;32.28;16.55;;;8.70;99.90;;;;;;4987957;28;20026;-70
2023/05/02 05:51:52;;;;;;;32.58;16.75;;;8.80;99.90;;;;;;4990188;28;20023;-72
2023/05/02 05:54:18;;;;;;;31.63;16.15;;;8.80;99.90;;;;;;4988799;28;20426;-69
2023/05/02 05:56:44;;;;;;;33.67;16.52;;;8.80;99.90;;;;;;4982863;28;20101;-69
2023/05/02 05:59:10;;;;;;;37.35;16.20;;;8.90;99.90;;;;;;4977444;28;20038;-72
2023/05/02 06:01:36;;;;;;;30.20;15.70;;;8.90;99.90;;;;;;4990499;28;20037;-71
2023/05/02 06:04:03;;;;;;;40.30;17.08;;;8.90;99.90;;;;;;4981144;28;20594;-71
2023/05/02 06:06:30;;;;;;;31.75;16.13;;;8.90;99.90;;;;;;4984166;28;20319;-71
2023/05/02 06:08:56;;;;;;;31.42;16.15;;;9.00;99.90;;;;;;4984953;28;20518;-71
2023/05/02 06:11:23;;;;;;;30.90;16.58;;;9.00;99.90;;;;;;5003837;28;20030;-74
2023/05/02 06:13:50;;;;;;;31.70;16.17;;;9.00;99.90;;;;;;4985144;28;20121;-73
2023/05/02 06:16:17;;;;;;;33.38;17.10;;;9.10;99.90;;;;;;4988538;28;20038;-71
2023/05/02 06:18:43;;;;;;;29.75;15.95;;;9.10;99.90;;;;;;4990367;28;20073;-73
2023/05/02 06:21:08;;;;;;;31.98;16.30;;;9.10;99.90;;;;;;4965790;28;20129;-71
2023/05/02 06:23:34;;;;;;;34.92;17.27;;;9.10;99.90;;;;;;4989631;28;20109;-69
2023/05/02 06:26:01;;;;;;;45.25;19.55;;;9.10;99.90;;;;;;4987115;28;20042;-69
2023/05/02 06:28:28;;;;;;;38.75;17.48;;;9.10;99.90;;;;;;4982005;28;20041;-69
2023/05/02 06:31:01;;;;;;;33.67;16.85;;;9.10;99.90;;;;;;4989273;28;20399;-68
2023/05/02 06:33:28;;;;;;;31.63;17.00;;;9.10;99.90;;;;;;4989633;28;20031;-70
2023/05/02 06:35:54;;;;;;;34.03;16.67;;;9.20;99.90;;;;;;4987915;28;20049;-69
2023/05/02 06:38:20;;;;;;;37.15;18.15;;;9.20;99.90;;;;;;4985048;28;20035;-71
2023/05/02 06:40:46;;;;;;;36.55;18.73;;;9.20;99.90;;;;;;4986346;28;20033;-70
2023/05/02 06:43:12;;;;;;;35.53;17.88;;;9.20;99.90;;;;;;4963071;28;20030;-72
2023/05/02 06:45:38;;;;;;;35.65;17.60;;;9.20;99.90;;;;;;4988957;28;20030;-72
2023/05/02 06:48:04;;;;;;;38.25;18.80;;;9.20;99.90;;;;;;4969246;28;20030;-70
2023/05/02 06:50:30;;;;;;;38.00;18.73;;;9.10;99.90;;;;;;4983839;28;20084;-68
2023/05/02 06:52:55;;;;;;;39.53;18.52;;;9.10;99.90;;;;;;4988998;28;20038;-68
2023/05/02 06:55:21;;;;;;;36.85;18.15;;;9.10;99.90;;;;;;4987942;28;20038;-70
2023/05/02 06:57:51;;;;;;;40.00;18.98;;;9.10;99.90;;;;;;4988130;28;20038;-72
2023/05/02 07:00:18;;;;;;;39.75;18.27;;;9.20;99.90;;;;;;4987654;28;20037;-72
2023/05/02 07:02:45;;;;;;;36.88;18.33;;;9.20;99.90;;;;;;4971697;28;20026;-65
2023/05/02 07:05:11;;;;;;;37.05;18.50;;;9.30;99.90;;;;;;4988399;28;20049;-68
2023/05/02 07:07:37;;;;;;;38.45;18.73;;;9.40;99.90;;;;;;4970916;28;20034;-67
2023/05/02 07:10:03;;;;;;;38.30;19.55;;;9.40;99.90;;;;;;4985373;28;20557;-69
2023/05/02 07:12:29;;;;;;;37.75;19.00;;;9.50;99.90;;;;;;4986139;28;20062;-70
2023/05/02 07:14:55;;;;;;;38.50;19.15;;;9.60;99.90;;;;;;4988038;28;20057;-70
2023/05/02 07:17:20;;;;;;;34.72;18.33;;;9.60;99.90;;;;;;4987606;28;20038;-71
2023/05/02 07:19:46;;;;;;;39.25;18.80;;;9.70;99.90;;;;;;4986769;28;20527;-68
2023/05/02 07:22:11;;;;;;;38.45;19.00;;;9.70;99.90;;;;;;4988344;28;20068;-71
2023/05/02 07:24:40;;;;;;;36.15;18.13;;;9.80;99.90;;;;;;4984718;28;20048;-67
2023/05/02 07:27:09;;;;;;;35.97;18.27;;;9.80;99.90;;;;;;4989231;28;20109;-68
2023/05/02 07:29:34;;;;;;;36.15;19.05;;;9.90;99.90;;;;;;4987871;28;20026;-72
2023/05/02 07:32:00;;;;;;;34.60;18.42;;;9.90;99.90;;;;;;4989225;28;20043;-66
2023/05/02 07:34:26;;;;;;;36.17;19.08;;;9.90;99.90;;;;;;4985938;28;20125;-71
2023/05/02 07:36:52;;;;;;;35.78;18.85;;;9.90;99.90;;;;;;4983899;28;20459;-69
2023/05/02 07:39:18;;;;;;;33.83;18.20;;;10.00;99.90;;;;;;4982790;28;20475;-68
2023/05/02 07:41:43;;;;;;;33.65;18.13;;;10.00;99.90;;;;;;4988570;28;20034;-68
2023/05/02 07:44:10;;;;;;;32.83;18.60;;;10.10;99.90;;;;;;4987497;28;20069;-65
2023/05/02 07:46:35;;;;;;;37.28;18.55;;;10.10;99.90;;;;;;4985087;28;20234;-67
2023/05/02 07:49:01;;;;;;;32.10;16.40;;;10.20;99.90;;;;;;4988774;28;20482;-71
2023/05/02 07:51:26;;;;;;;31.88;16.95;;;10.20;99.90;;;;;;4986228;28;20096;-68
2023/05/02 07:53:54;;;;;;;29.70;16.05;;;10.10;99.90;;;;;;4988274;28;20061;-71
2023/05/02 07:56:20;;;;;;;31.83;16.70;;;10.10;99.90;;;;;;4985904;28;20044;-70
2023/05/02 07:58:46;;;;;;;36.20;18.65;;;10.10;99.90;;;;;;4982516;28;20080;-67
2023/05/02 08:01:11;;;;;;;36.33;18.45;;;10.20;99.90;;;;;;4987625;28;20739;-68
2023/05/02 08:03:37;;;;;;;30.63;16.38;;;10.20;99.90;;;;;;4987711;28;20044;-67
2023/05/02 08:06:03;;;;;;;34.38;17.75;;;10.30;99.90;;;;;;4985787;28;20140;-67
2023/05/02 08:08:29;;;;;;;34.58;17.73;;;10.40;99.90;;;;;;4987904;28;20059;-69
2023/05/02 08:10:54;;;;;;;29.40;16.13;;;10.50;99.90;;;;;;4972397;28;20085;-69
2023/05/02 08:13:20;;;;;;;31.65;16.90;;;10.50;99.90;;;;;;4986423;28;20856;-67
2023/05/02 08:15:45;;;;;;;32.35;16.98;;;10.60;99.90;;;;;;4979983;28;20493;-70
2023/05/02 08:18:11;;;;;;;31.00;16.65;;;10.60;99.90;;;;;;4983559;28;20085;-68
2023/05/02 08:20:37;;;;;;;32.53;17.20;;;10.70;99.90;;;;;;4999316;28;20848;-68
2023/05/02 08:23:02;;;;;;;27.02;15.98;;;10.70;99.90;;;;;;4982925;28;20041;-68
2023/05/02 08:25:29;;;;;;;36.53;17.23;;;10.80;99.90;;;;;;4989097;28;20033;-66
2023/05/02 08:27:55;;;;;;;31.60;17.42;;;10.90;99.90;;;;;;4991074;28;20057;-69
2023/05/02 08:30:20;;;;;;;33.80;17.27;;;11.00;99.90;;;;;;4987317;28;20466;-71
2023/05/02 08:32:46;;;;;;;31.45;17.05;;;11.10;99.90;;;;;;4994839;28;20057;-68
2023/05/02 08:35:12;;;;;;;32.05;16.98;;;11.20;99.90;;;;;;4985726;28;20054;-68
2023/05/02 08:37:38;;;;;;;30.10;16.63;;;11.20;99.90;;;;;;4983907;28;20142;-68
2023/05/02 08:40:05;;;;;;;28.27;15.45;;;11.20;99.90;;;;;;4994146;28;20046;-69
2023/05/02 08:42:33;;;;;;;31.15;16.33;;;11.20;99.90;;;;;;4991815;28;20201;-69
2023/05/02 08:44:59;;;;;;;30.50;17.13;;;11.20;99.90;;;;;;4993122;28;21158;-69
2023/05/02 08:47:26;;;;;;;31.30;15.93;;;11.40;99.90;;;;;;4988016;28;20375;-69
2023/05/02 08:49:54;;;;;;;29.00;16.65;;;11.50;99.90;;;;;;4991548;28;20030;-68
2023/05/02 08:52:21;;;;;;;30.02;17.05;;;11.50;99.90;;;;;;4994026;28;20026;-72
2023/05/02 08:54:48;;;;;;;32.45;16.55;;;11.50;99.90;;;;;;4993754;28;20064;-68
2023/05/02 08:57:13;;;;;;;28.63;15.88;;;11.50;99.90;;;;;;4993933;28;20057;-68
2023/05/02 08:59:41;;;;;;;28.08;16.15;;;11.60;99.90;;;;;;4993197;28;20026;-66
2023/05/02 09:02:22;;;;;;;36.50;16.38;;;11.60;99.90;;;;;;4993147;28;20022;-66
2023/05/02 09:04:52;;;;;;;29.17;15.95;;;11.60;99.90;;;;;;4992612;28;20034;-68
2023/05/02 09:07:18;;;;;;;31.58;16.23;;;11.70;99.90;;;;;;5000396;28;20089;-72
2023/05/02 09:09:44;;;;;;;28.63;16.00;;;11.70;99.90;;;;;;4994443;28;20054;-68
2023/05/02 09:12:09;;;;;;;29.33;16.45;;;11.80;99.90;;;;;;4992411;28;20453;-68
2023/05/02 09:14:35;;;;;;;28.20;16.58;;;11.90;99.90;;;;;;5008126;28;20042;-69
2023/05/02 09:17:01;;;;;;;33.40;16.67;;;11.90;99.90;;;;;;4992652;28;20060;-69
2023/05/02 09:19:27;;;;;;;30.35;16.05;;;12.00;99.90;;;;;;4997527;28;20030;-69
2023/05/02 09:22:00;;;;;;;30.27;15.93;;;12.30;99.90;;;;;;4990716;28;20080;-68
2023/05/02 09:24:25;;;;;;;29.98;16.05;;;12.50;99.90;;;;;;4992169;28;20058;-68
2023/05/02 09:27:01;;;;;;;27.88;15.80;;;12.70;99.90;;;;;;4993323;28;20501;-69
2023/05/02 09:29:34;;;;;;;29.67;16.45;;;12.90;99.90;;;;;;4982709;28;20031;-68
2023/05/02 09:32:02;;;;;;;28.38;16.35;;;13.00;99.90;;;;;;4992032;28;20061;-67
2023/05/02 09:34:27;;;;;;;29.52;15.98;;;13.10;99.90;;;;;;4986991;28;20085;-67
2023/05/02 09:36:53;;;;;;;28.88;16.48;;;13.20;99.90;;;;;;4979905;28;20496;-69
2023/05/02 09:39:21;;;;;;;26.80;15.38;;;13.30;99.90;;;;;;4989795;28;20089;-71
2023/05/02 09:41:48;;;;;;;29.60;16.77;;;13.50;99.90;;;;;;4990247;28;20117;-68
2023/05/02 09:44:18;;;;;;;27.77;15.85;;;13.60;99.90;;;;;;4982103;28;20026;-70
2023/05/02 09:46:46;;;;;;;29.33;16.60;;;13.70;99.90;;;;;;4990209;28;20027;-69
2023/05/02 09:49:13;;;;;;;30.00;16.30;;;13.90;99.90;;;;;;4988979;28;20038;-70
2023/05/02 09:51:40;;;;;;;27.55;15.80;;;14.10;99.90;;;;;;4987594;28;20110;-69
2023/05/02 09:54:06;;;;;;;27.92;16.60;;;14.40;99.90;;;;;;4989944;28;20460;-70
2023/05/02 09:56:52;;;;;;;24.90;14.40;;;14.60;99.90;;;;;;4990069;28;20065;-70
2023/05/02 09:59:17;;;;;;;26.70;15.27;;;14.80;99.90;;;;;;4990435;28;20440;-71
2023/05/02 10:01:43;;;;;;;27.83;15.25;;;14.80;99.90;;;;;;4971952;28;20161;-69
2023/05/02 10:04:17;;;;;;;26.08;15.93;;;15.30;99.90;;;;;;4990104;28;20085;-71
2023/05/02 10:06:43;;;;;;;29.90;15.13;;;15.40;99.90;;;;;;4987250;28;20133;-69
2023/05/02 10:09:10;;;;;;;24.67;13.25;;;15.80;99.90;;;;;;4984880;28;20137;-70
2023/05/02 10:11:38;;;;;;;23.13;13.07;;;16.30;99.90;;;;;;4987820;28;20031;-68
2023/05/02 10:14:08;;;;;;;23.92;13.43;;;16.60;99.90;;;;;;4986709;28;20030;-67
2023/05/02 10:16:37;;;;;;;22.83;13.40;;;16.10;99.90;;;;;;4984760;28;20045;-68
2023/05/02 10:19:08;;;;;;;22.60;13.40;;;16.00;99.90;;;;;;4983269;28;20030;-69
2023/05/02 10:21:35;;;;;;;21.95;13.30;;;16.00;99.90;;;;;;4987059;28;20033;-69
2023/05/02 10:24:04;;;;;;;24.02;13.93;;;15.90;99.90;;;;;;4987049;28;20022;-69
2023/05/02 10:26:30;;;;;;;34.33;14.20;;;16.00;99.90;;;;;;4986549;28;20038;-69
2023/05/02 10:28:56;;;;;;;21.67;12.63;;;16.00;99.90;;;;;;4985243;28;20092;-69
2023/05/02 10:31:22;;;;;;;22.38;12.10;;;16.30;99.90;;;;;;4964195;28;20681;-71
2023/05/02 10:33:51;;;;;;;23.90;11.82;;;16.50;99.90;;;;;;4963582;28;20023;-69
2023/05/02 10:36:21;;;;;;;23.02;12.45;;;16.80;99.90;;;;;;4987422;28;20053;-68
2023/05/02 10:38:48;;;;;;;19.98;12.23;;;17.00;99.90;;;;;;4968213;28;20069;-74
2023/05/02 10:41:17;;;;;;;23.95;12.80;;;17.20;99.90;;;;;;4987637;28;20476;-74
2023/05/02 10:43:48;;;;;;;21.23;12.98;;;17.20;99.90;;;;;;4971794;28;20297;-74
2023/05/02 10:46:46;;;;;;;20.80;12.70;;;16.90;99.90;;;;;;4986010;28;20046;-70
2023/05/02 10:49:12;;;;;;;19.90;12.48;;;16.70;99.90;;;;;;4958934;28;20077;-70
2023/05/02 10:51:42;;;;;;;18.38;11.05;;;16.70;99.90;;;;;;4988058;28;20037;-70
2023/05/02 10:54:21;;;;;;;19.05;11.40;;;16.80;99.90;;;;;;4987503;28;20023;-71
2023/05/02 10:57:02;;;;;;;17.92;11.25;;;17.10;99.90;;;;;;4963929;28;20068;-73
2023/05/02 10:59:28;;;;;;;20.55;12.32;;;17.40;99.90;;;;;;4987318;28;20138;-73
2023/05/02 11:01:54;;;;;;;21.52;11.98;;;17.80;99.90;;;;;;4989797;28;20482;-71
2023/05/02 11:04:20;;;;;;;23.88;12.63;;;17.20;99.90;;;;;;4988248;28;20030;-72
2023/05/02 11:07:03;;;;;;;19.45;12.02;;;16.70;99.90;;;;;;4987113;28;20038;-72
2023/05/02 11:09:31;;;;;;;16.25;10.85;;;16.30;99.90;;;;;;4988793;28;20054;-74
2023/05/02 11:11:57;;;;;;;18.98;11.77;;;16.30;99.90;;;;;;4981157;28;20046;-76
2023/05/02 11:14:29;;;;;;;19.80;10.98;;;16.30;99.90;;;;;;4978358;28;20470;-71
2023/05/02 11:17:03;;;;;;;18.42;11.18;;;16.40;99.90;;;;;;4984545;28;20089;-72
2023/05/02 11:19:50;;;;;;;14.98;9.82;;;16.60;99.90;;;;;;4981771;28;20089;-72
2023/05/02 11:22:27;;;;;;;14.30;9.00;;;16.80;99.90;;;;;;4981265;28;20037;-71
2023/05/02 11:24:53;;;;;;;16.45;10.63;;;17.00;99.90;;;;;;4980978;28;20510;-73
2023/05/02 11:27:28;;;;;;;16.52;9.27;;;16.90;99.90;;;;;;4988152;28;20030;-74
2023/05/02 11:29:57;;;;;;;13.85;9.55;;;16.80;99.90;;;;;;4984840;28;20113;-72
2023/05/02 11:32:26;;;;;;;17.77;10.90;;;16.80;99.90;;;;;;4983936;28;20058;-75
2023/05/02 11:34:51;;;;;;;18.92;11.02;;;16.70;99.90;;;;;;4985206;28;20293;-66
2023/05/02 11:37:19;;;;;;;19.02;11.02;;;16.50;99.90;;;;;;4982720;28;20404;-70
2023/05/02 11:39:45;;;;;;;17.77;10.75;;;16.40;99.90;;;;;;4988031;28;20038;-72
2023/05/02 11:42:30;;;;;;;18.70;10.55;;;16.40;99.90;;;;;;4979719;28;20502;-76
2023/05/02 11:44:58;;;;;;;20.00;11.55;;;16.40;99.90;;;;;;4987708;28;20027;-72
2023/05/02 11:47:25;;;;;;;18.92;11.02;;;16.40;99.90;;;;;;4987871;28;20022;-69
2023/05/02 11:49:54;;;;;;;20.50;12.35;;;16.50;99.90;;;;;;4970630;28;20091;-70
2023/05/02 11:52:19;;;;;;;22.52;12.10;;;16.20;99.90;;;;;;4986400;28;20030;-68
2023/05/02 11:54:46;;;;;;;20.65;12.60;;;16.10;99.90;;;;;;4985842;28;20045;-67
2023/05/02 11:57:11;;;;;;;18.98;11.57;;;16.00;99.90;;;;;;4975446;28;20398;-65
2023/05/02 11:59:51;;;;;;;21.33;12.60;;;15.80;99.90;;;;;;4981573;28;20034;-72
2023/05/02 12:02:17;;;;;;;21.33;12.32;;;15.70;99.90;;;;;;4986945;28;20521;-73
2023/05/02 12:04:43;;;;;;;21.33;12.68;;;15.70;99.90;;;;;;4986052;28;20034;-73
2023/05/02 12:07:09;;;;;;;22.30;13.75;;;15.60;99.90;;;;;;4978864;28;20467;-73
2023/05/02 12:09:35;;;;;;;22.55;13.50;;;15.60;99.90;;;;;;4984389;28;20055;-71
2023/05/02 12:12:02;;;;;;;20.20;12.45;;;16.10;99.90;;;;;;4985648;28;20030;-70
2023/05/02 12:14:35;;;;;;;20.30;12.93;;;16.60;99.90;;;;;;4978571;28;20466;-71
2023/05/02 12:17:02;;;;;;;20.80;13.00;;;17.00;99.90;;;;;;4981827;28;20041;-71
2023/05/02 12:19:28;;;;;;;22.58;13.13;;;17.20;99.90;;;;;;4985844;28;20034;-70
2023/05/02 12:21:54;;;;;;;21.50;12.55;;;17.60;99.90;;;;;;4985537;28;20526;-69
2023/05/02 12:24:20;;;;;;;23.15;12.80;;;17.90;99.90;;;;;;4987984;28;20033;-72
2023/05/02 12:26:46;;;;;;;25.52;12.23;;;17.60;99.90;;;;;;4987527;28;20598;-68
2023/05/02 12:29:11;;;;;;;20.88;11.93;;;17.10;99.90;;;;;;4987318;28;21050;-70
2023/05/02 12:31:37;;;;;;;16.88;11.05;;;17.00;99.90;;;;;;4984305;28;20050;-70
2023/05/02 12:34:03;;;;;;;19.23;11.98;;;17.10;99.90;;;;;;4988164;28;20101;-71
2023/05/02 12:36:29;;;;;;;22.13;13.10;;;16.70;99.90;;;;;;4986367;28;20465;-71
2023/05/02 12:38:58;;;;;;;19.40;11.65;;;16.20;99.90;;;;;;4985933;28;20035;-70